Time;durP1;ratioP1;P1;durP2;ratioP2;P2;SDS_P1;SDS_P2;PMS_P1;PMS_P2;Temp;Humidity;BMP_temperature;BMP_pressure;BME280_temperature;BME280_humidity;BME280_pressure;Samples;Min_cycle;Max_cycle;Signal;HPM_P1;HPM_P2
2022/10/30 00:00:51;;;;;;;9.68;3.17;;;;;;;16.27;41.03;100626.47;10477333;28;20195;-82
2022/10/30 00:06:13;;;;;;;8.77;2.85;;;;;;;16.34;41.55;100620.94;10478664;28;21001;-82
2022/10/30 00:11:16;;;;;;;8.27;3.15;;;;;;;16.37;41.56;100620.19;10478265;28;20257;-82
2022/10/30 00:16:38;;;;;;;8.98;2.95;;;;;;;16.20;41.62;100621.38;10476828;28;20249;-84
2022/10/30 00:22:01;;;;;;;7.65;3.13;;;;;;;16.38;42.56;100619.84;10460403;28;20207;-83
2022/10/30 00:27:02;;;;;;;10.57;3.60;;;;;;;16.39;41.52;100623.50;10425630;28;20636;-84
2022/10/30 00:32:24;;;;;;;8.73;3.33;;;;;;;16.20;42.33;100633.56;10453589;28;20244;-81
2022/10/30 00:37:46;;;;;;;7.82;2.63;;;;;;;16.63;40.67;100628.97;10474594;28;20258;-82
2022/10/30 00:43:31;;;;;;;7.18;3.28;;;;;;;16.56;41.59;100634.47;10475435;28;20543;-82
2022/10/30 00:49:00;;;;;;;7.65;3.35;;;;;;;16.05;42.10;100640.06;10468584;28;20242;-83
2022/10/30 00:54:22;;;;;;;8.50;2.80;;;;;;;16.27;41.22;100643.53;10462491;28;20276;-84
2022/10/30 00:59:47;;;;;;;9.77;3.05;;;;;;;16.34;42.57;100632.31;10474339;28;20584;-83
2022/10/30 01:05:15;;;;;;;13.57;3.47;;;;;;;16.50;41.57;100618.91;10475325;28;20523;-82
2022/10/30 01:10:38;;;;;;;8.85;2.83;;;;;;;16.21;41.65;100623.84;10468946;28;20631;-83
2022/10/30 01:16:36;;;;;;;14.20;3.15;;;;;;;16.48;41.79;100616.44;10472454;28;20245;-81
2022/10/30 01:22:39;;;;;;;7.30;2.83;;;;;;;16.26;42.53;100614.25;10458527;28;20570;-82
2022/10/30 01:28:03;;;;;;;13.30;3.50;;;;;;;15.85;44.58;100627.78;10451162;28;21082;-85
2022/10/30 01:33:41;;;;;;;10.40;3.28;;;;;;;15.38;45.32;100641.00;10446850;28;20203;-83
2022/10/30 01:39:14;;;;;;;7.32;3.35;;;;;;;15.53;45.10;100640.25;10474249;28;20603;-84
2022/10/30 01:44:36;;;;;;;14.88;3.70;;;;;;;15.42;45.58;100637.06;10464910;28;20219;-83
2022/10/30 01:50:01;;;;;;;11.25;3.50;;;;;;;15.54;45.57;100630.53;10469074;28;20255;-80
2022/10/30 01:55:32;;;;;;;8.82;3.20;;;;;;;15.83;44.95;100641.53;10470635;28;20269;-82
2022/10/30 02:00:57;;;;;;;8.10;2.90;;;;;;;15.92;43.50;100638.50;10472995;28;20256;-84
2022/10/30 02:06:21;;;;;;;8.88;3.15;;;;;;;15.94;44.92;100624.75;10458312;28;20526;-83
2022/10/30 02:11:45;;;;;;;7.63;2.88;;;;;;;15.79;43.23;100634.06;10459907;28;20203;-84
2022/10/30 02:17:08;;;;;;;7.82;2.92;;;;;;;15.89;42.92;100632.75;10458576;28;20530;-84
2022/10/30 02:22:30;;;;;;;9.80;3.00;;;;;;;16.03;42.53;100633.91;10447013;28;20611;-83
2022/10/30 02:27:52;;;;;;;11.63;3.65;;;;;;;15.95;43.09;100637.78;10475009;28;20716;-84
2022/10/30 02:33:14;;;;;;;9.90;3.13;;;;;;;16.03;43.24;100628.22;10472024;28;20199;-80
2022/10/30 02:38:17;;;;;;;11.52;3.65;;;;;;;15.71;44.37;100637.91;10474275;28;20195;-84
2022/10/30 02:43:39;;;;;;;11.68;3.38;;;;;;;15.56;45.33;100636.69;10446726;28;20199;-80
2022/10/30 02:49:02;;;;;;;7.22;2.95;;;;;;;15.55;45.74;100639.88;10467809;28;20211;-84
2022/10/30 02:54:25;;;;;;;10.77;3.50;;;;;;;15.24;46.34;100634.91;10472920;28;20288;-84
2022/10/30 02:59:48;;;;;;;13.70;3.05;;;;;;;15.17;45.87;100641.19;10466798;28;20215;-84
2022/10/30 03:05:10;;;;;;;11.43;3.42;;;;;;;14.74;48.48;100650.34;10498014;28;20220;-84
2022/10/30 03:10:32;;;;;;;10.23;3.92;;;;;;;15.22;46.74;100643.78;10485969;28;20220;-83
2022/10/30 03:16:06;;;;;;;10.68;3.85;;;;;;;15.18;45.78;100642.84;10486984;28;20272;-83
2022/10/30 03:21:29;;;;;;;9.55;3.30;;;;;;;15.16;46.27;100646.03;10465418;28;20199;-83
2022/10/30 03:26:51;;;;;;;11.32;3.55;;;;;;;15.36;45.79;100641.38;10468488;28;20246;-84
2022/10/30 03:32:14;;;;;;;7.63;3.03;;;;;;;14.96;47.87;100635.69;10486355;28;20210;-83
2022/10/30 03:37:28;;;;;;;9.05;3.72;;;;;;;14.61;48.86;100641.03;10474436;28;20195;-83
2022/10/30 03:42:51;;;;;;;8.35;3.20;;;;;;;14.58;48.73;100653.09;10467240;28;20204;-83
2022/10/30 03:48:13;;;;;;;6.13;3.17;;;;;;;14.46;49.63;100655.91;10467045;28;20261;-83
2022/10/30 03:53:36;;;;;;;8.63;2.97;;;;;;;14.37;49.40;100658.88;10448684;28;20539;-83
2022/10/30 03:58:58;;;;;;;6.82;3.28;;;;;;;14.09;51.74;100667.22;10462399;28;20188;-82
2022/10/30 04:04:36;;;;;;;9.02;3.90;;;;;;;14.17;51.45;100665.47;10461952;28;20567;-83
2022/10/30 04:09:58;;;;;;;8.20;3.70;;;;;;;13.90;51.91;100661.25;10461740;28;20270;-82
2022/10/30 04:15:20;;;;;;;13.63;4.28;;;;;;;14.11;51.57;100655.53;10448266;28;20496;-83
2022/10/30 04:20:43;;;;;;;8.20;3.45;;;;;;;13.80;52.52;100664.56;10447872;28;20200;-83
2022/10/30 04:26:08;;;;;;;9.50;3.90;;;;;;;13.77;53.01;100653.91;10448289;28;20519;-84
2022/10/30 04:31:30;;;;;;;9.52;4.10;;;;;;;13.43;54.21;100663.56;10462372;28;20241;-83
2022/10/30 04:36:52;;;;;;;9.98;4.25;;;;;;;13.63;53.17;100679.72;10462319;28;20188;-84
2022/10/30 04:42:15;;;;;;;10.15;4.05;;;;;;;13.82;52.51;100682.00;10447163;28;20201;-84
2022/10/30 04:47:37;;;;;;;7.40;3.53;;;;;;;14.13;50.72;100687.19;10447060;28;20620;-83
2022/10/30 04:53:05;;;;;;;10.07;3.53;;;;;;;13.90;52.90;100677.44;10460667;28;20669;-83
2022/10/30 04:58:34;;;;;;;10.68;4.00;;;;;;;13.67;52.57;100680.69;10447556;28;20192;-83
2022/10/30 05:03:57;;;;;;;14.02;4.25;;;;;;;13.66;53.12;100670.53;10446153;28;20631;-83
2022/10/30 05:09:20;;;;;;;10.95;3.65;;;;;;;13.46;53.70;100677.03;10460073;28;20223;-84
2022/10/30 05:14:43;;;;;;;8.43;4.10;;;;;;;13.74;53.03;100674.44;10460017;28;20200;-84
2022/10/30 05:20:07;;;;;;;8.95;4.50;;;;;;;13.60;52.76;100674.72;10446230;28;20195;-81
2022/10/30 05:25:31;;;;;;;8.27;3.73;;;;;;;13.46;53.38;100673.38;10459509;28;20235;-83
2022/10/30 05:30:54;;;;;;;10.27;4.28;;;;;;;13.07;54.41;100661.34;10446004;28;20220;-83
2022/10/30 05:36:35;;;;;;;9.38;3.85;;;;;;;13.25;53.45;100662.06;10465429;28;20188;-82
2022/10/30 05:41:57;;;;;;;12.30;4.55;;;;;;;13.21;53.20;100653.44;10431646;28;20603;-84
2022/10/30 05:47:20;;;;;;;12.38;4.68;;;;;;;13.31;53.08;100655.00;10444895;28;20508;-82
2022/10/30 05:52:42;;;;;;;10.17;4.50;;;;;;;13.08;53.39;100651.69;10444999;28;20175;-83
2022/10/30 05:58:05;;;;;;;7.65;3.88;;;;;;;13.02;53.65;100655.91;10478543;28;20191;-84
2022/10/30 06:03:29;;;;;;;9.65;4.35;;;;;;;13.50;52.90;100643.19;10460470;28;20237;-84
2022/10/30 06:08:52;;;;;;;10.70;4.32;;;;;;;13.38;52.59;100644.81;10475841;28;20241;-83
2022/10/30 06:14:30;;;;;;;12.30;4.30;;;;;;;13.66;51.56;100641.38;10482500;28;20269;-83
2022/10/30 06:19:52;;;;;;;9.18;4.05;;;;;;;13.54;52.20;100633.66;10467369;28;20222;-82
2022/10/30 06:25:35;;;;;;;12.20;4.30;;;;;;;13.57;52.13;100646.28;10469713;28;20227;-84
2022/10/30 06:31:05;;;;;;;9.55;4.10;;;;;;;13.43;52.29;100640.06;10457664;28;20624;-84
2022/10/30 06:36:20;;;;;;;11.70;4.15;;;;;;;13.52;53.24;100643.69;10461030;28;20261;-84
2022/10/30 06:41:42;;;;;;;7.18;4.00;;;;;;;13.80;51.66;100656.06;10468364;28;20266;-84
2022/10/30 06:47:22;;;;;;;10.45;3.92;;;;;;;13.56;53.09;100667.28;10472636;28;20274;-84
2022/10/30 06:52:44;;;;;;;11.50;4.57;;;;;;;13.81;52.11;100660.50;10457472;28;20199;-83
2022/10/30 06:58:08;;;;;;;9.68;3.60;;;;;;;13.28;54.16;100673.53;10488557;28;20217;-85
2022/10/30 07:03:38;;;;;;;9.18;4.45;;;;;;;12.59;56.90;100670.31;10472443;28;20223;-83
2022/10/30 07:09:01;;;;;;;11.73;5.00;;;;;;;13.27;54.01;100680.38;10465011;28;20281;-83
2022/10/30 07:14:24;;;;;;;8.25;4.28;;;;;;;13.46;54.43;100685.53;10450996;28;20543;-84
2022/10/30 07:20:05;;;;;;;11.68;4.45;;;;;;;13.10;55.05;100688.97;10466742;28;20207;-83
2022/10/30 07:25:29;;;;;;;12.60;4.90;;;;;;;13.32;54.86;100697.13;10449469;28;20270;-85
2022/10/30 07:30:57;;;;;;;9.35;5.15;;;;;;;12.93;56.60;100694.72;10482826;28;20292;-83
2022/10/30 07:36:42;;;;;;;13.53;5.20;;;;;;;13.28;56.13;100690.53;10460793;28;20249;-82
2022/10/30 07:42:29;;;;;;;12.85;5.25;;;;;;;13.12;57.09;100692.28;10447485;28;20246;-83
2022/10/30 07:48:09;;;;;;;10.93;5.13;;;;;;;13.64;55.26;100689.88;10460365;28;20251;-82
2022/10/30 07:53:37;;;;;;;13.43;4.75;;;;;;;13.71;54.93;100687.28;10441367;28;20755;-82
2022/10/30 07:59:00;;;;;;;9.63;5.13;;;;;;;14.13;53.72;100686.38;10442244;28;20200;-84
2022/10/30 08:04:51;;;;;;;13.35;4.70;;;;;;;14.51;52.41;100686.88;10461347;28;20269;-83
2022/10/30 08:10:38;;;;;;;9.40;4.03;;;;;;;14.99;51.38;100679.53;10402024;28;20301;-83
2022/10/30 08:16:00;;;;;;;11.32;4.45;;;;;;;14.89;50.91;100682.88;10421159;28;20223;-82
2022/10/30 08:21:24;;;;;;;11.65;4.00;;;;;;;14.44;52.15;100675.31;10414079;28;20269;-81
2022/10/30 08:26:51;;;;;;;10.70;4.00;;;;;;;15.21;49.82;100673.38;10432155;28;20231;-82
2022/10/30 08:32:13;;;;;;;9.38;4.20;;;;;;;15.31;49.21;100669.19;10444955;28;20513;-80
2022/10/30 08:37:58;;;;;;;7.85;3.60;;;;;;;15.27;49.31;100663.41;10454912;28;20196;-82
2022/10/30 08:43:30;;;;;;;7.57;3.75;;;;;;;15.48;49.24;100675.41;10430407;28;20666;-80
2022/10/30 08:48:54;;;;;;;11.60;3.78;;;;;;;16.17;47.65;100659.88;10460698;28;20239;-82
2022/10/30 08:54:24;;;;;;;8.70;4.20;;;;;;;16.06;47.68;100655.13;10455125;28;20196;-82
2022/10/30 08:59:47;;;;;;;9.63;4.03;;;;;;;16.20;47.25;100649.81;10456353;28;20252;-81
2022/10/30 09:05:27;;;;;;;7.75;3.40;;;;;;;16.65;46.71;100645.69;10453808;28;20571;-80
2022/10/30 09:11:08;;;;;;;9.48;4.20;;;;;;;16.54;46.40;100643.38;10418485;28;20825;-83
2022/10/30 09:16:33;;;;;;;15.88;3.83;;;;;;;16.56;46.11;100640.19;10414698;28;20227;-80
2022/10/30 09:21:59;;;;;;;7.18;3.88;;;;;;;16.83;45.76;100642.06;10449363;28;20612;-80
2022/10/30 09:27:22;;;;;;;12.68;3.42;;;;;;;16.79;45.15;100638.31;10425110;28;20247;-80
2022/10/30 09:32:53;;;;;;;12.23;3.65;;;;;;;16.48;45.66;100633.50;10411633;28;20276;-79
2022/10/30 09:38:39;;;;;;;8.48;3.55;;;;;;;17.10;44.53;100645.13;10425631;28;20277;-80
2022/10/30 09:44:47;;;;;;;12.52;4.20;;;;;;;17.72;43.32;100640.34;10421401;28;20678;-81
2022/10/30 09:50:10;;;;;;;9.23;3.25;;;;;;;17.55;43.86;100635.94;10438506;28;20780;-82
2022/10/30 09:55:50;;;;;;;11.07;3.88;;;;;;;18.06;42.40;100628.00;10411055;28;20231;-80
2022/10/30 10:01:28;;;;;;;9.07;3.83;;;;;;;17.23;43.88;100635.25;10418120;28;20223;-80
2022/10/30 10:07:00;;;;;;;14.02;3.30;;;;;;;17.85;42.74;100613.31;10414251;28;20247;-80
2022/10/30 10:12:33;;;;;;;16.17;4.38;;;;;;;17.78;42.86;100610.34;10438628;28;20247;-81
2022/10/30 10:17:57;;;;;;;8.85;3.50;;;;;;;18.45;42.02;100610.75;10417579;28;20267;-77
2022/10/30 10:23:32;;;;;;;10.18;4.03;;;;;;;18.52;41.98;100599.44;10454719;28;20228;-80
2022/10/30 10:29:05;;;;;;;13.52;4.93;;;;;;;18.59;41.34;100610.97;10444943;28;20243;-81
2022/10/30 10:34:45;;;;;;;10.85;3.97;;;;;;;18.43;41.88;100613.97;10432568;28;20277;-79
2022/10/30 10:40:32;;;;;;;11.48;3.60;;;;;;;18.55;41.76;100605.22;10441578;28;20226;-80
2022/10/30 10:46:06;;;;;;;13.48;4.10;;;;;;;18.90;41.09;100596.34;10449956;28;20227;-81
2022/10/30 10:51:40;;;;;;;11.18;3.60;;;;;;;18.41;41.19;100589.88;10447181;28;20227;-81
2022/10/30 10:57:04;;;;;;;11.57;4.13;;;;;;;18.02;42.13;100592.03;10446181;28;20264;-78
2022/10/30 11:03:08;;;;;;;9.35;3.72;;;;;;;18.45;41.41;100587.91;10440640;28;20287;-79
2022/10/30 11:08:21;;;;;;;11.15;4.03;;;;;;;18.52;41.29;100582.31;10436380;28;22495;-80
2022/10/30 11:13:46;;;;;;;17.95;3.95;;;;;;;19.23;39.83;100578.47;10451545;28;20228;-79
2022/10/30 11:19:08;;;;;;;10.82;4.30;;;;;;;18.77;40.28;100580.66;10436879;28;20302;-80
2022/10/30 11:24:35;;;;;;;11.52;3.42;;;;;;;18.81;40.45;100572.13;10456310;28;20228;-80
2022/10/30 11:30:01;;;;;;;7.75;3.03;;;;;;;19.42;39.34;100570.91;10429903;28;20296;-80
2022/10/30 11:35:24;;;;;;;13.20;4.00;;;;;;;18.80;39.49;100565.59;10427801;28;20258;-77
2022/10/30 11:40:48;;;;;;;12.30;2.90;;;;;;;19.98;37.71;100550.69;10419224;28;20215;-79
2022/10/30 11:46:19;;;;;;;9.30;2.95;;;;;;;19.91;37.08;100554.31;10412193;28;20232;-80
2022/10/30 11:51:46;;;;;;;8.38;3.22;;;;;;;20.11;37.03;100549.16;10438210;28;20243;-79
2022/10/30 11:57:27;;;;;;;8.13;3.33;;;;;;;19.89;37.07;100558.78;10483241;28;20199;-80
2022/10/30 12:02:51;;;;;;;9.77;2.70;;;;;;;19.96;37.22;100547.41;10419779;28;20220;-80
2022/10/30 12:08:14;;;;;;;10.48;4.03;;;;;;;20.29;37.58;100541.59;10411534;28;20270;-80
2022/10/30 12:13:38;;;;;;;8.43;3.33;;;;;;;19.81;37.22;100537.84;10455773;28;20199;-80
2022/10/30 12:19:14;;;;;;;12.13;3.42;;;;;;;19.64;37.60;100542.22;10460707;28;20273;-80
2022/10/30 12:24:37;;;;;;;13.43;3.17;;;;;;;19.65;36.51;100526.66;10429508;28;20216;-79
2022/10/30 12:30:14;;;;;;;9.85;2.85;;;;;;;19.87;36.23;100524.03;10454353;28;20274;-80
2022/10/30 12:35:56;;;;;;;9.18;2.72;;;;;;;20.23;36.71;100519.44;10418431;28;20542;-79
2022/10/30 12:41:23;;;;;;;14.13;3.47;;;;;;;19.43;36.95;100536.22;10437574;28;20248;-80
2022/10/30 12:46:53;;;;;;;11.05;3.30;;;;;;;19.87;36.93;100522.00;10434221;28;20276;-80
2022/10/30 12:52:32;;;;;;;13.38;7.47;;;;;;;19.92;35.98;100526.50;10412254;28;20235;-77
2022/10/30 12:58:00;;;;;;;12.02;3.30;;;;;;;19.68;36.47;100530.78;10416339;28;20224;-78
2022/10/30 13:03:48;;;;;;;10.25;2.83;;;;;;;20.07;35.74;100520.50;10418655;28;20798;-77
2022/10/30 13:09:22;;;;;;;12.02;3.28;;;;;;;19.78;36.40;100529.25;10446667;28;20243;-77
2022/10/30 13:14:50;;;;;;;9.13;3.78;;;;;;;19.92;36.72;100526.50;10431707;28;20227;-78
2022/10/30 13:20:13;;;;;;;9.27;3.40;;;;;;;20.15;35.73;100530.00;10416894;28;20224;-78
2022/10/30 13:26:00;;;;;;;11.23;3.50;;;;;;;19.65;36.83;100525.88;10448965;28;20269;-79
2022/10/30 13:31:44;;;;;;;7.45;3.67;;;;;;;19.84;37.00;100519.09;10453944;28;20239;-80
2022/10/30 13:37:15;;;;;;;9.60;3.75;;;;;;;19.51;37.58;100519.97;10454981;28;20238;-80
2022/10/30 13:43:01;;;;;;;10.57;3.75;;;;;;;20.34;37.20;100514.63;10435407;28;20284;-80
2022/10/30 13:48:33;;;;;;;7.32;3.47;;;;;;;19.62;38.11;100518.91;10438159;28;20673;-80
2022/10/30 13:54:11;;;;;;;9.93;3.97;;;;;;;19.53;37.70;100512.63;10465929;28;20223;-80
2022/10/30 14:00:02;;;;;;;9.30;3.85;;;;;;;19.70;37.48;100511.19;10455002;28;20212;-78
2022/10/30 14:05:34;;;;;;;9.73;3.08;;;;;;;19.92;36.58;100517.94;10415458;28;20327;-80
2022/10/30 14:10:58;;;;;;;8.30;3.22;;;;;;;19.44;38.17;100529.28;10444448;28;20247;-77
2022/10/30 14:16:30;;;;;;;8.80;3.22;;;;;;;19.49;37.75;100526.09;10442979;28;20615;-80
2022/10/30 14:21:54;;;;;;;13.20;4.05;;;;;;;19.52;38.02;100528.16;10435031;28;20231;-79
2022/10/30 14:27:25;;;;;;;9.55;2.97;;;;;;;19.56;37.60;100537.59;10447772;28;20312;-79
2022/10/30 14:32:49;;;;;;;9.77;3.50;;;;;;;19.77;37.84;100547.63;10456298;28;21122;-77
2022/10/30 14:38:12;;;;;;;12.25;3.60;;;;;;;19.81;37.22;100540.72;10488235;28;20276;-80
2022/10/30 14:43:44;;;;;;;11.73;3.95;;;;;;;19.47;38.56;100548.53;10481017;28;20210;-80
2022/10/30 14:49:24;;;;;;;10.80;5.07;;;;;;;19.58;38.60;100554.38;10457189;28;20308;-80
2022/10/30 14:55:23;;;;;;;11.27;4.40;;;;;;;19.72;37.61;100541.06;10445765;28;20220;-80
2022/10/30 15:00:45;;;;;;;14.93;4.68;;;;;;;19.71;37.92;100542.25;10439763;28;20246;-81
2022/10/30 15:06:38;;;;;;;14.77;6.05;;;;;;;19.72;38.33;100525.94;10450933;28;20224;-80
2022/10/30 15:12:19;;;;;;;15.82;5.22;;;;;;;19.52;38.26;100521.63;10452811;28;20378;-81
2022/10/30 15:17:32;;;;;;;13.68;4.95;;;;;;;19.37;39.34;100534.94;10450751;28;20249;-81
2022/10/30 15:22:57;;;;;;;20.73;8.35;;;;;;;19.29;39.92;100536.06;10457149;28;20211;-81
2022/10/30 15:28:22;;;;;;;16.38;5.35;;;;;;;18.98;41.65;100543.84;10446510;28;20243;-81
2022/10/30 15:33:24;;;;;;;9.50;3.95;;;;;;;18.85;41.54;100539.56;10466514;28;20299;-81
2022/10/30 15:39:05;;;;;;;10.02;3.97;;;;;;;18.67;41.95;100532.78;10423873;28;20216;-82
2022/10/30 15:44:29;;;;;;;10.40;4.00;;;;;;;18.48;42.58;100541.50;10440291;28;20298;-80
2022/10/30 15:49:55;;;;;;;10.32;3.90;;;;;;;18.55;40.76;100539.56;10431689;28;20313;-81
2022/10/30 15:55:21;;;;;;;10.85;3.90;;;;;;;18.43;40.88;100538.94;10441241;28;20223;-81
2022/10/30 16:00:57;;;;;;;10.70;3.33;;;;;;;18.64;40.73;100539.25;10443808;28;20242;-81
2022/10/30 16:06:23;;;;;;;10.02;5.05;;;;;;;18.38;41.03;100542.94;10435766;28;20223;-83
2022/10/30 16:11:47;;;;;;;15.15;4.30;;;;;;;18.43;41.01;100556.91;10450332;28;20305;-81
2022/10/30 16:17:10;;;;;;;5.35;3.00;;;;;;;18.17;42.22;100565.41;10450938;28;20257;-81
2022/10/30 16:22:34;;;;;;;8.23;3.70;;;;;;;17.80;42.59;100576.59;10479820;28;20694;-82
2022/10/30 16:27:56;;;;;;;9.82;4.00;;;;;;;17.97;43.13;100590.31;10463977;28;20511;-82
2022/10/30 16:33:24;;;;;;;17.02;4.45;;;;;;;17.81;42.09;100592.50;10465175;28;20295;-81
2022/10/30 16:38:47;;;;;;;9.57;3.85;;;;;;;17.71;41.85;100588.22;10451788;28;20261;-80
2022/10/30 16:44:16;;;;;;;9.98;3.35;;;;;;;17.80;41.75;100610.78;10445112;28;20281;-81
2022/10/30 16:49:45;;;;;;;7.07;3.25;;;;;;;17.61;41.00;100612.47;10457638;28;20293;-81
2022/10/30 16:55:22;;;;;;;9.70;4.03;;;;;;;17.61;41.16;100628.75;10443552;28;20223;-80
2022/10/30 17:00:49;;;;;;;6.32;3.10;;;;;;;17.24;41.29;100626.34;10456021;28;20282;-82
2022/10/30 17:06:39;;;;;;;9.63;3.20;;;;;;;17.34;41.52;100629.78;10474397;28;20228;-80
2022/10/30 17:12:18;;;;;;;9.23;3.30;;;;;;;17.09;42.05;100643.47;10454194;28;20297;-81
2022/10/30 17:17:41;;;;;;;6.38;3.22;;;;;;;16.95;41.94;100657.38;10465305;28;20227;-82
2022/10/30 17:23:10;;;;;;;5.97;2.88;;;;;;;16.90;42.16;100665.00;10460604;28;20257;-82
2022/10/30 17:28:33;;;;;;;6.70;3.03;;;;;;;17.20;42.37;100673.03;10486432;28;20278;-81
2022/10/30 17:34:16;;;;;;;8.68;3.63;;;;;;;16.69;42.61;100684.41;10426426;28;20255;-80
2022/10/30 17:39:38;;;;;;;7.40;3.28;;;;;;;17.06;42.18;100692.63;10451643;28;20871;-81
2022/10/30 17:45:01;;;;;;;5.00;2.92;;;;;;;16.37;43.69;100702.69;10466769;28;20231;-80
2022/10/30 17:50:23;;;;;;;6.80;3.08;;;;;;;16.45;43.04;100696.81;10480472;28;20320;-81
2022/10/30 17:55:47;;;;;;;7.03;3.53;;;;;;;16.56;42.58;100702.78;10433625;28;20227;-80
2022/10/30 18:01:22;;;;;;;6.95;2.55;;;;;;;16.77;42.61;100706.19;10428797;28;20227;-82
2022/10/30 18:06:44;;;;;;;10.18;2.70;;;;;;;16.31;43.31;100727.75;10458256;28;20264;-81
2022/10/30 18:12:11;;;;;;;6.45;2.65;;;;;;;16.17;43.94;100731.00;10430233;28;20602;-81
2022/10/30 18:17:34;;;;;;;8.63;3.03;;;;;;;16.69;42.46;100734.81;10410507;28;20232;-82
2022/10/30 18:22:56;;;;;;;7.57;3.50;;;;;;;16.32;43.42;100745.63;10413930;28;20243;-82
2022/10/30 18:28:19;;;;;;;8.65;2.70;;;;;;;16.53;43.07;100749.06;10443006;28;20325;-81
2022/10/30 18:33:43;;;;;;;9.82;3.10;;;;;;;16.24;43.57;100752.31;10427158;28;20301;-80
2022/10/30 18:39:05;;;;;;;5.97;2.83;;;;;;;16.60;42.82;100754.09;10421016;28;20199;-81
2022/10/30 18:44:27;;;;;;;6.85;3.28;;;;;;;16.70;43.04;100764.94;10438711;28;20222;-82
2022/10/30 18:49:49;;;;;;;6.30;2.90;;;;;;;17.02;42.43;100760.91;10443117;28;20223;-80
2022/10/30 18:55:33;;;;;;;11.32;3.40;;;;;;;16.45;43.92;100762.25;10434785;28;20203;-80
2022/10/30 19:00:47;;;;;;;4.45;2.83;;;;;;;16.67;42.54;100755.09;10461923;28;20242;-82
2022/10/30 19:06:15;;;;;;;5.82;3.03;;;;;;;16.47;43.16;100756.22;10432413;28;20285;-81
2022/10/30 19:11:37;;;;;;;9.38;3.25;;;;;;;15.79;45.96;100764.81;10428061;28;20240;-81
2022/10/30 19:17:00;;;;;;;7.82;3.33;;;;;;;16.23;45.00;100753.53;10443335;28;20528;-82
2022/10/30 19:22:22;;;;;;;11.38;3.80;;;;;;;16.31;43.67;100758.19;10444116;28;20209;-82
2022/10/30 19:27:44;;;;;;;4.38;3.42;;;;;;;16.06;44.98;100769.69;10439664;28;20251;-81
2022/10/30 19:33:08;;;;;;;7.95;3.30;;;;;;;16.39;43.91;100772.28;10418016;28;20248;-80
2022/10/30 19:38:31;;;;;;;6.35;3.08;;;;;;;16.36;43.53;100786.38;10415701;28;20220;-81
2022/10/30 19:43:53;;;;;;;7.28;2.92;;;;;;;16.52;43.61;100778.72;10419978;28;20228;-82
2022/10/30 19:49:17;;;;;;;7.63;3.10;;;;;;;16.22;44.66;100789.63;10403827;28;20236;-81
2022/10/30 19:54:39;;;;;;;6.90;3.00;;;;;;;16.31;44.40;100798.84;10416097;28;20248;-82
2022/10/30 20:00:01;;;;;;;7.43;3.22;;;;;;;16.21;44.13;100805.88;10427435;28;20671;-82
2022/10/30 20:05:26;;;;;;;7.88;3.33;;;;;;;16.16;44.55;100808.97;10455447;28;20247;-81
2022/10/30 20:10:54;;;;;;;7.97;2.78;;;;;;;16.24;44.19;100820.59;10422447;28;20248;-80
2022/10/30 20:16:16;;;;;;;9.27;3.50;;;;;;;16.12;44.98;100827.13;10421157;28;20232;-82
2022/10/30 20:21:38;;;;;;;7.50;3.30;;;;;;;15.93;44.83;100842.00;10419039;28;20212;-82
2022/10/30 20:27:00;;;;;;;7.90;3.72;;;;;;;16.23;44.17;100844.53;10453393;28;20251;-80
2022/10/30 20:32:22;;;;;;;7.90;3.80;;;;;;;16.17;44.79;100844.75;10421353;28;20805;-81
2022/10/30 20:37:56;;;;;;;8.82;3.75;;;;;;;16.02;45.04;100853.25;10413792;28;20239;-82
2022/10/30 20:43:26;;;;;;;7.32;3.45;;;;;;;16.14;45.35;100856.03;10420476;28;20560;-82
2022/10/30 20:48:48;;;;;;;11.15;4.25;;;;;;;15.99;45.55;100860.47;10427576;28;20232;-81
2022/10/30 20:54:10;;;;;;;9.30;4.60;;;;;;;15.92;46.28;100865.91;10424990;28;20718;-82
2022/10/30 20:59:32;;;;;;;9.27;3.90;;;;;;;15.94;46.42;100857.88;10412244;28;20235;-82
2022/10/30 21:04:54;;;;;;;6.80;4.05;;;;;;;15.73;47.11;100868.59;10423528;28;20296;-82
2022/10/30 21:10:16;;;;;;;10.20;4.18;;;;;;;15.65;47.10;100873.19;10414133;28;20270;-82
2022/10/30 21:15:40;;;;;;;11.52;5.38;;;;;;;15.34;48.18;100875.81;10452783;28;20193;-82
2022/10/30 21:21:03;;;;;;;9.52;4.20;;;;;;;15.79;47.11;100878.50;10447878;28;20245;-82
2022/10/30 21:26:25;;;;;;;7.35;4.05;;;;;;;15.83;46.92;100887.97;10459847;28;20227;-81
2022/10/30 21:31:47;;;;;;;11.75;4.18;;;;;;;15.88;46.70;100887.75;10461884;28;20274;-81
2022/10/30 21:37:09;;;;;;;8.32;4.10;;;;;;;15.88;47.31;100893.44;10430830;28;20231;-82
2022/10/30 21:42:31;;;;;;;10.65;4.25;;;;;;;15.57;47.82;100893.22;10443855;28;20220;-81
2022/10/30 21:47:53;;;;;;;11.05;4.20;;;;;;;15.73;47.61;100894.16;10440817;28;20195;-83
2022/10/30 21:53:15;;;;;;;12.65;5.35;;;;;;;15.37;48.98;100895.78;10450188;28;20566;-80
2022/10/30 21:58:37;;;;;;;7.43;4.57;;;;;;;15.43;48.47;100893.56;10442912;28;20292;-81
2022/10/30 22:04:01;;;;;;;8.00;4.45;;;;;;;15.30;49.19;100891.91;10448759;28;20269;-82
2022/10/30 22:09:23;;;;;;;11.88;4.80;;;;;;;14.84;51.36;100910.19;10477825;28;20223;-82
2022/10/30 22:14:45;;;;;;;8.70;4.72;;;;;;;14.90;50.74;100920.09;10445407;28;20254;-82
2022/10/30 22:20:08;;;;;;;7.63;4.20;;;;;;;14.70;51.26;100921.81;10440762;28;20227;-81
2022/10/30 22:25:30;;;;;;;13.90;4.90;;;;;;;14.67;50.87;100929.00;10432070;28;20274;-84
2022/10/30 22:30:52;;;;;;;11.38;4.95;;;;;;;14.92;50.40;100934.78;10449016;28;20299;-82
2022/10/30 22:36:17;;;;;;;10.55;5.00;;;;;;;14.29;51.70;100939.72;10446950;28;20277;-83
2022/10/30 22:41:40;;;;;;;7.38;4.72;;;;;;;14.40;51.53;100946.63;10445725;28;20222;-83
2022/10/30 22:47:02;;;;;;;10.82;4.93;;;;;;;14.46;51.67;100950.88;10491340;28;20199;-82
2022/10/30 22:52:24;;;;;;;9.02;4.47;;;;;;;14.64;51.08;100958.06;10474496;28;20308;-83
2022/10/30 22:57:46;;;;;;;10.73;5.18;;;;;;;14.98;50.33;100967.47;10466504;28;20195;-83
2022/10/30 23:03:08;;;;;;;9.05;5.15;;;;;;;14.82;50.81;100970.13;10459159;28;20461;-83
2022/10/30 23:08:30;;;;;;;13.60;5.82;;;;;;;14.62;51.46;100971.75;10464301;28;20200;-83
2022/10/30 23:13:52;;;;;;;9.35;5.28;;;;;;;14.92;51.02;100971.69;10471130;28;20227;-83
2022/10/30 23:19:14;;;;;;;12.82;5.40;;;;;;;14.17;53.13;100973.66;10492194;28;20211;-82
2022/10/30 23:24:36;;;;;;;11.40;5.38;;;;;;;14.04;54.47;100967.91;10490325;28;20270;-83
2022/10/30 23:29:58;;;;;;;11.93;6.32;;;;;;;14.15;54.38;100973.16;10460357;28;20660;-82
2022/10/30 23:35:20;;;;;;;9.30;6.05;;;;;;;14.21;54.55;100975.44;10482009;28;20264;-81
2022/10/30 23:40:42;;;;;;;11.30;6.20;;;;;;;14.06;55.50;100981.75;10506348;28;20484;-82
2022/10/30 23:46:05;;;;;;;13.30;6.57;;;;;;;14.35;54.89;100978.00;10505713;28;20192;-82
2022/10/30 23:51:27;;;;;;;19.30;7.38;;;;;;;14.21;56.26;100974.63;10491471;28;20217;-82
2022/10/30 23:56:49;;;;;;;13.85;6.93;;;;;;;14.16;56.02;100977.66;10506044;28;20244;-82
